Huvudsida
METAR-TAF:

METAR-TAF

Flygplatser :

Sigonella flygbas

Sigonella, Italien

latitud: 37-24N, longitud: 014-55E, höjd: 22 m

Aktuellt väderrapport

Denna rapport gjordes för 1 timme och 26 minuter sedan, klockan 19:55 UTC
Vind 5 kt från ost/sydost
Temperatur 22°C
Fuktighet 100%
Tryck 1015 hPa
Sikt 10 km eller mer
Inga moln under 1 500 m eller inga cumulonimbus

METAR: LICZ 181955Z 12005KT CAVOK 22/22 Q1015 RMK SKC VIS MIN 9999 WIND THR28 11005KT WIND THR10 11005KT A2997 BLU

Tid: 23:21 (21:21 UTC)

Väderprognos

Denna rapport gjordes för 1 timme och 21 minuter sedan, klockan 20:00 UTC
Prognos gäller från 18 kl. 21 UTC till 19 kl. 06 UTC
Vind 8 kt från väst/nordväst
Sikt 10 km eller mer
Inga moln under 1 500 m eller inga cumulonimbus

TAF: LICZ 182000Z 1821/1906 29008KT CAVOK

Aktuella väderrapporter och prognoser från 4000 flygplatser (METAR- och TAF-rapporter).

De tillgängliga stationerna syns som gula och röda prickar på kartan.

För musen över prickarna för att se namnen på stationerna.

Klicka sedan för att få väderrapporter och prognoser.

För att ändra kartan: Klicka på de gröna knapparna med ett svart kors på för att zooma in; den gröna knappen med ett streck på för att zooma ut; eller på de gröna pilarna för angränsande kartor.


METAR-TAF: